Time;durP1;ratioP1;P1;durP2;ratioP2;P2;SDS_P1;SDS_P2;PMS_P1;PMS_P2;Temp;Humidity;BMP_temperature;BMP_pressure;BME280_temperature;BME280_humidity;BME280_pressure;Samples;Min_cycle;Max_cycle;Signal;HPM_P1;HPM_P2
2021/05/25 00:00:09;;;;;;;1.75;1.25;;;15.80;63.80;;;;;;5030538;28;20026;-84
2021/05/25 00:02:38;;;;;;;1.63;1.30;;;15.80;63.80;;;;;;5014170;28;20042;-85
2021/05/25 00:05:05;;;;;;;1.27;1.17;;;15.80;63.80;;;;;;4997354;28;20121;-84
2021/05/25 00:07:31;;;;;;;1.65;1.30;;;15.80;63.90;;;;;;5005748;28;20583;-84
2021/05/25 00:09:57;;;;;;;1.80;1.45;;;15.80;63.90;;;;;;4996457;28;20061;-85
2021/05/25 00:12:23;;;;;;;1.60;1.50;;;15.70;63.90;;;;;;5003766;28;20037;-84
2021/05/25 00:14:49;;;;;;;1.58;1.30;;;15.70;63.90;;;;;;5010568;28;20113;-84
2021/05/25 00:17:15;;;;;;;2.20;1.67;;;15.70;64.00;;;;;;4996099;28;20080;-84
2021/05/25 00:19:41;;;;;;;2.03;1.50;;;15.70;64.00;;;;;;4986458;28;20050;-84
2021/05/25 00:22:06;;;;;;;1.95;1.58;;;15.70;64.00;;;;;;5016749;28;20045;-84
2021/05/25 00:24:33;;;;;;;1.75;1.42;;;15.70;64.10;;;;;;4995450;28;20098;-85
2021/05/25 00:26:58;;;;;;;1.55;1.45;;;15.60;64.00;;;;;;4988757;28;20042;-85
2021/05/25 00:29:24;;;;;;;2.22;1.50;;;15.60;64.10;;;;;;5004464;28;20391;-84
2021/05/25 00:31:50;;;;;;;2.15;1.70;;;15.60;64.10;;;;;;5013239;28;20162;-84
2021/05/25 00:34:16;;;;;;;1.80;1.60;;;15.50;64.10;;;;;;5013097;28;20109;-85
2021/05/25 00:36:42;;;;;;;1.75;1.52;;;15.60;64.20;;;;;;4991643;28;20549;-85
2021/05/25 00:39:08;;;;;;;2.10;1.77;;;15.50;64.10;;;;;;5012255;28;20026;-84
2021/05/25 00:41:35;;;;;;;1.90;1.63;;;15.50;64.20;;;;;;5003947;28;20057;-85
2021/05/25 00:44:02;;;;;;;2.35;1.60;;;15.50;64.20;;;;;;5005271;28;20038;-84
2021/05/25 00:46:28;;;;;;;2.17;1.60;;;15.50;64.20;;;;;;5009336;28;20033;-84
2021/05/25 00:48:54;;;;;;;2.35;1.95;;;15.40;64.20;;;;;;5017105;28;20471;-84
2021/05/25 00:51:20;;;;;;;2.60;1.90;;;15.40;64.20;;;;;;4993051;28;20040;-85
2021/05/25 00:53:45;;;;;;;2.25;1.90;;;15.40;64.30;;;;;;4987682;28;20036;-84
2021/05/25 00:56:12;;;;;;;2.88;1.90;;;15.40;64.50;;;;;;5012463;28;20034;-84
2021/05/25 00:58:38;;;;;;;2.38;1.75;;;15.40;64.30;;;;;;4987481;28;20110;-84
2021/05/25 01:01:04;;;;;;;3.03;1.85;;;15.30;64.30;;;;;;5020489;28;20479;-84
2021/05/25 01:03:31;;;;;;;2.67;1.92;;;15.30;64.40;;;;;;5012445;28;20030;-84
2021/05/25 01:05:57;;;;;;;2.20;1.83;;;15.30;64.40;;;;;;5006085;28;20031;-84
2021/05/25 01:08:23;;;;;;;2.42;1.90;;;15.30;64.40;;;;;;5011259;28;20034;-84
2021/05/25 01:10:52;;;;;;;2.78;2.00;;;15.30;64.50;;;;;;4986297;28;20030;-84
2021/05/25 01:13:21;;;;;;;2.40;2.00;;;15.20;64.40;;;;;;4993370;28;20031;-84
2021/05/25 01:15:48;;;;;;;3.22;2.00;;;15.30;64.20;;;;;;5006847;28;20092;-85
2021/05/25 01:18:14;;;;;;;2.50;1.88;;;15.20;64.50;;;;;;5006731;28;20088;-84
2021/05/25 01:20:41;;;;;;;2.22;1.77;;;15.20;64.60;;;;;;4987892;28;20041;-84
2021/05/25 01:23:09;;;;;;;1.95;1.73;;;15.20;64.60;;;;;;5003551;28;20037;-83
2021/05/25 01:25:38;;;;;;;1.83;1.60;;;15.10;64.50;;;;;;4996336;28;20463;-86
2021/05/25 01:28:07;;;;;;;2.75;2.08;;;15.10;64.60;;;;;;5022262;28;20026;-84
2021/05/25 01:30:36;;;;;;;2.60;1.90;;;15.10;64.60;;;;;;5011539;28;20056;-84
2021/05/25 01:33:04;;;;;;;2.88;1.83;;;15.10;64.70;;;;;;4987177;28;20065;-84
2021/05/25 01:35:31;;;;;;;2.42;1.95;;;15.10;64.60;;;;;;4991463;28;20037;-84
2021/05/25 01:37:59;;;;;;;2.58;1.90;;;15.00;64.60;;;;;;5023184;28;20085;-85
2021/05/25 01:40:26;;;;;;;1.90;1.60;;;15.00;64.60;;;;;;4993004;28;20161;-84
2021/05/25 01:42:52;;;;;;;2.55;1.90;;;15.00;64.70;;;;;;5000997;28;20034;-84
2021/05/25 01:45:23;;;;;;;2.53;1.60;;;15.00;64.70;;;;;;4987422;28;20022;-84
2021/05/25 01:47:50;;;;;;;1.63;1.50;;;15.00;64.70;;;;;;5008203;28;20447;-84
2021/05/25 01:50:17;;;;;;;2.35;1.80;;;15.00;64.70;;;;;;4994476;28;20029;-84
2021/05/25 01:55:26;;;;;;;1.63;1.40;;;14.90;64.80;;;;;;5011108;28;20100;-85
2021/05/25 01:57:53;;;;;;;1.60;1.50;;;14.90;64.70;;;;;;5006739;28;20061;-85
2021/05/25 02:00:18;;;;;;;2.22;1.65;;;14.90;64.80;;;;;;4992582;28;20501;-84
2021/05/25 02:02:44;;;;;;;2.55;1.75;;;14.80;64.70;;;;;;4991843;28;20026;-84
2021/05/25 02:05:10;;;;;;;2.40;1.70;;;14.80;64.80;;;;;;5024998;28;20034;-84
2021/05/25 02:07:36;;;;;;;1.65;1.55;;;14.80;64.80;;;;;;5022161;28;20026;-84
2021/05/25 02:10:03;;;;;;;1.58;1.48;;;14.80;64.80;;;;;;5007374;28;20045;-84
2021/05/25 02:12:29;;;;;;;2.03;1.60;;;14.80;64.80;;;;;;5016823;28;20038;-85
2021/05/25 02:14:54;;;;;;;1.45;1.30;;;14.70;64.80;;;;;;5009296;28;20034;-84
2021/05/25 02:17:24;;;;;;;2.45;1.63;;;14.70;64.80;;;;;;4993100;28;20141;-84
2021/05/25 02:19:50;;;;;;;1.60;1.38;;;14.70;64.90;;;;;;4997650;28;20041;-87
2021/05/25 02:22:15;;;;;;;1.65;1.40;;;14.70;64.90;;;;;;4983363;28;20038;-84
2021/05/25 02:24:41;;;;;;;1.45;1.30;;;14.70;64.90;;;;;;5003236;28;20364;-85
2021/05/25 02:27:07;;;;;;;1.38;1.27;;;14.60;64.90;;;;;;5007501;28;20487;-84
2021/05/25 02:29:32;;;;;;;1.63;1.30;;;14.60;64.90;;;;;;4996391;28;20066;-84
2021/05/25 02:31:58;;;;;;;1.80;1.40;;;14.60;64.90;;;;;;5015999;28;20018;-84
2021/05/25 02:34:24;;;;;;;1.90;1.35;;;14.60;64.90;;;;;;5004453;28;20037;-84
2021/05/25 02:36:50;;;;;;;1.30;1.20;;;14.60;65.00;;;;;;5014962;28;20045;-84
2021/05/25 02:39:16;;;;;;;1.50;1.40;;;14.60;65.00;;;;;;4995458;28;20034;-84
2021/05/25 02:41:42;;;;;;;2.20;1.38;;;14.50;64.90;;;;;;4993658;28;20034;-86
2021/05/25 02:44:07;;;;;;;2.20;1.40;;;14.50;65.00;;;;;;5003187;28;20050;-84
2021/05/25 02:46:33;;;;;;;1.40;1.30;;;14.50;65.00;;;;;;4993916;28;20034;-83
2021/05/25 02:48:59;;;;;;;1.33;1.23;;;14.50;65.00;;;;;;5030056;28;20030;-84
2021/05/25 02:51:25;;;;;;;1.40;1.30;;;14.50;65.00;;;;;;5012425;28;20029;-84
2021/05/25 02:53:50;;;;;;;2.95;1.40;;;14.40;65.00;;;;;;4998347;28;20482;-84
2021/05/25 02:56:16;;;;;;;1.70;1.30;;;14.40;65.00;;;;;;4999828;28;20026;-84
2021/05/25 02:58:42;;;;;;;1.60;1.40;;;14.40;65.00;;;;;;4985645;28;20049;-84
2021/05/25 03:01:08;;;;;;;1.38;1.20;;;14.40;65.00;;;;;;4997714;28;20487;-84
2021/05/25 03:03:33;;;;;;;1.40;1.30;;;14.40;65.00;;;;;;5012865;28;20486;-84
2021/05/25 03:05:59;;;;;;;2.25;1.38;;;14.40;65.10;;;;;;4977935;28;20034;-82
2021/05/25 03:08:26;;;;;;;1.95;1.27;;;14.30;65.00;;;;;;5010566;28;20038;-84
2021/05/25 03:10:53;;;;;;;1.45;1.30;;;14.30;65.00;;;;;;5012865;28;20022;-84
2021/05/25 03:13:19;;;;;;;1.73;1.30;;;14.30;65.10;;;;;;4998156;28;20423;-84
2021/05/25 03:15:46;;;;;;;1.40;1.30;;;14.30;65.10;;;;;;5007743;28;20068;-86
2021/05/25 03:18:13;;;;;;;1.67;1.20;;;14.30;65.10;;;;;;5007475;28;20459;-84
2021/05/25 03:20:43;;;;;;;1.85;1.35;;;14.20;65.10;;;;;;4994948;28;20106;-82
2021/05/25 03:23:09;;;;;;;2.03;1.40;;;14.20;65.10;;;;;;4997574;28;20028;-84
2021/05/25 03:25:35;;;;;;;1.67;1.20;;;14.20;65.10;;;;;;5014234;28;20081;-84
2021/05/25 03:28:02;;;;;;;1.40;1.27;;;14.10;65.10;;;;;;5014544;28;20025;-84
2021/05/25 03:30:28;;;;;;;1.77;1.40;;;14.10;65.10;;;;;;5000610;28;20517;-83
2021/05/25 03:32:54;;;;;;;2.35;1.40;;;14.10;65.10;;;;;;5013993;28;20033;-84
2021/05/25 03:35:22;;;;;;;1.38;1.13;;;14.10;65.10;;;;;;5013454;28;20030;-82
2021/05/25 03:37:48;;;;;;;1.88;1.40;;;14.10;65.20;;;;;;4997314;28;20064;-84
2021/05/25 03:40:16;;;;;;;1.30;1.15;;;14.00;65.10;;;;;;5023432;28;20027;-83
2021/05/25 03:42:49;;;;;;;1.88;1.33;;;14.00;65.20;;;;;;5008328;28;20497;-85
2021/05/25 03:45:16;;;;;;;2.08;1.25;;;14.00;65.20;;;;;;4997939;28;20255;-85
2021/05/25 03:47:42;;;;;;;2.03;1.40;;;13.90;65.10;;;;;;5014091;28;20052;-84
2021/05/25 03:50:10;;;;;;;2.22;1.40;;;13.90;65.20;;;;;;4997554;28;20034;-84
2021/05/25 03:52:50;;;;;;;1.52;1.20;;;13.90;65.90;;;;;;5013460;28;20104;-85
2021/05/25 04:00:53;;;;;;;1.77;1.27;;;13.80;65.20;;;;;;5012332;28;20034;-84
2021/05/25 04:03:19;;;;;;;1.80;1.25;;;13.80;65.20;;;;;;5013401;28;20030;-84
2021/05/25 04:05:46;;;;;;;1.20;1.10;;;13.80;65.30;;;;;;5012535;28;20034;-83
2021/05/25 04:08:12;;;;;;;1.98;1.38;;;13.80;65.30;;;;;;5010811;28;20049;-84
2021/05/25 04:10:38;;;;;;;2.00;1.30;;;13.80;65.40;;;;;;4993331;28;20117;-84
2021/05/25 04:13:05;;;;;;;2.38;1.60;;;13.70;65.30;;;;;;5029588;28;20022;-83
2021/05/25 04:15:31;;;;;;;1.92;1.38;;;13.70;65.30;;;;;;5023355;28;20037;-84
2021/05/25 04:17:56;;;;;;;2.55;1.60;;;13.70;65.40;;;;;;5009281;28;20030;-84
2021/05/25 04:20:23;;;;;;;1.73;1.33;;;13.70;65.40;;;;;;5024790;28;20030;-84
2021/05/25 04:22:49;;;;;;;1.58;1.25;;;13.70;65.50;;;;;;5010142;28;20034;-86
2021/05/25 04:25:15;;;;;;;1.67;1.30;;;13.70;65.50;;;;;;5027068;28;20037;-84
2021/05/25 04:27:41;;;;;;;1.60;1.23;;;13.60;65.40;;;;;;5009741;28;20052;-83
2021/05/25 04:30:09;;;;;;;1.90;1.45;;;13.60;65.50;;;;;;5012755;28;20066;-84
2021/05/25 04:32:35;;;;;;;1.38;1.27;;;13.70;65.50;;;;;;5027995;28;20108;-83
2021/05/25 04:35:02;;;;;;;2.17;1.40;;;13.60;65.50;;;;;;4996268;28;20037;-82
2021/05/25 04:37:28;;;;;;;1.58;1.20;;;13.60;65.50;;;;;;4995269;28;20018;-84
2021/05/25 04:39:53;;;;;;;2.33;1.58;;;13.60;65.50;;;;;;5029226;28;20034;-83
2021/05/25 04:42:19;;;;;;;2.80;1.40;;;13.60;65.50;;;;;;5027818;28;20033;-86
2021/05/25 04:44:45;;;;;;;1.50;1.40;;;13.60;65.50;;;;;;5013609;28;20030;-84
2021/05/25 04:47:11;;;;;;;1.75;1.40;;;13.60;65.60;;;;;;5012967;28;20043;-81
2021/05/25 04:49:39;;;;;;;2.10;1.40;;;13.50;65.60;;;;;;5028845;28;20034;-85
2021/05/25 04:52:05;;;;;;;2.25;1.40;;;13.60;65.60;;;;;;5027791;28;20030;-86
2021/05/25 04:54:31;;;;;;;1.95;1.48;;;13.50;65.60;;;;;;5007434;28;20037;-86
2021/05/25 04:56:57;;;;;;;1.65;1.40;;;13.50;65.60;;;;;;4993037;28;20042;-86
2021/05/25 04:59:23;;;;;;;2.60;1.70;;;13.50;65.60;;;;;;4991794;28;20029;-87
2021/05/25 05:01:49;;;;;;;2.13;1.55;;;13.50;65.60;;;;;;5008536;28;20030;-86
2021/05/25 05:04:14;;;;;;;2.25;1.73;;;13.50;65.60;;;;;;4991621;28;20113;-87
2021/05/25 05:06:40;;;;;;;2.17;1.67;;;13.50;65.70;;;;;;4972564;28;20123;-85
2021/05/25 05:09:06;;;;;;;2.80;1.83;;;13.50;65.70;;;;;;5010237;28;20038;-87
2021/05/25 05:11:32;;;;;;;2.20;1.58;;;13.50;65.70;;;;;;4991008;28;20034;-87
2021/05/25 05:13:58;;;;;;;2.20;1.70;;;13.50;65.80;;;;;;4992223;28;20414;-87
2021/05/25 05:16:24;;;;;;;2.40;1.67;;;13.40;65.70;;;;;;5007061;28;20113;-86
2021/05/25 05:18:50;;;;;;;2.75;1.77;;;13.40;65.80;;;;;;5008634;28;20774;-82
2021/05/25 05:21:16;;;;;;;2.13;1.65;;;13.40;65.80;;;;;;4995188;28;20498;-84
2021/05/25 05:23:42;;;;;;;2.13;1.90;;;13.40;65.80;;;;;;5012293;28;20053;-83
2021/05/25 05:26:08;;;;;;;2.95;1.80;;;13.40;65.90;;;;;;4987766;28;20038;-87
2021/05/25 05:28:34;;;;;;;1.88;1.63;;;13.40;65.90;;;;;;4996263;28;20026;-88
2021/05/25 05:31:00;;;;;;;1.85;1.70;;;13.40;65.90;;;;;;5008084;28;20134;-85
2021/05/25 05:33:27;;;;;;;2.22;1.77;;;13.40;65.90;;;;;;5011638;28;20065;-86
2021/05/25 05:35:53;;;;;;;2.55;1.83;;;13.40;65.90;;;;;;4983609;28;20045;-87
2021/05/25 05:38:20;;;;;;;2.00;1.75;;;13.40;65.90;;;;;;4993955;28;20042;-85
2021/05/25 05:40:46;;;;;;;2.60;1.90;;;13.40;66.60;;;;;;5008176;28;20022;-84
2021/05/25 05:43:12;;;;;;;2.20;1.88;;;13.40;66.00;;;;;;5004338;28;20053;-86
2021/05/25 05:45:38;;;;;;;2.40;1.90;;;13.40;66.00;;;;;;5011281;28;20030;-85
2021/05/25 05:48:05;;;;;;;2.30;1.83;;;13.40;66.00;;;;;;4994853;28;20042;-83
2021/05/25 05:50:31;;;;;;;1.95;1.70;;;13.40;66.00;;;;;;5008936;28;20040;-84
2021/05/25 05:52:57;;;;;;;2.50;1.80;;;13.40;66.00;;;;;;5018564;28;20025;-85
2021/05/25 05:55:23;;;;;;;1.85;1.65;;;13.40;66.70;;;;;;5012581;28;20049;-84
2021/05/25 05:57:49;;;;;;;2.28;1.75;;;13.40;66.10;;;;;;4996151;28;20045;-83
2021/05/25 06:00:16;;;;;;;2.50;1.88;;;13.40;66.10;;;;;;5012414;28;20041;-83
2021/05/25 06:02:42;;;;;;;1.83;1.60;;;13.40;66.10;;;;;;5014534;28;20085;-85
2021/05/25 06:05:08;;;;;;;1.92;1.70;;;13.50;66.20;;;;;;5016038;28;20538;-84
2021/05/25 06:07:34;;;;;;;2.50;1.70;;;13.50;66.20;;;;;;4999507;28;20038;-86
2021/05/25 06:10:02;;;;;;;1.65;1.55;;;13.50;66.20;;;;;;4999834;28;20040;-85
2021/05/25 06:12:28;;;;;;;2.58;1.90;;;13.50;66.20;;;;;;4998006;28;20037;-84
2021/05/25 06:14:54;;;;;;;2.42;2.03;;;13.50;66.20;;;;;;5016120;28;20109;-84
2021/05/25 06:17:19;;;;;;;2.72;1.95;;;13.50;66.20;;;;;;5016273;28;20044;-85
2021/05/25 06:19:45;;;;;;;2.20;1.95;;;13.50;66.90;;;;;;4999735;28;20065;-85
2021/05/25 06:22:11;;;;;;;2.08;1.80;;;13.50;66.20;;;;;;4999441;28;20061;-83
2021/05/25 06:24:38;;;;;;;2.55;2.03;;;13.50;66.20;;;;;;5017011;28;20053;-85
2021/05/25 06:27:04;;;;;;;2.83;1.88;;;13.50;66.20;;;;;;5011699;28;20092;-85
2021/05/25 06:29:30;;;;;;;2.25;1.83;;;13.50;66.20;;;;;;4985138;28;20172;-85
2021/05/25 06:32:00;;;;;;;2.33;2.13;;;13.50;66.20;;;;;;5014889;28;20113;-85
2021/05/25 06:34:27;;;;;;;2.17;1.92;;;13.50;66.20;;;;;;4994801;28;20384;-85
2021/05/25 06:36:53;;;;;;;2.60;1.92;;;13.50;66.20;;;;;;4997685;28;20030;-85
2021/05/25 06:39:19;;;;;;;2.50;2.00;;;13.50;66.20;;;;;;4999253;28;20176;-84
2021/05/25 06:41:44;;;;;;;2.58;2.33;;;13.60;66.30;;;;;;4987287;28;20042;-85
2021/05/25 06:44:10;;;;;;;2.30;2.10;;;13.60;66.20;;;;;;5013715;28;20054;-85
2021/05/25 06:46:36;;;;;;;2.92;2.28;;;13.60;66.30;;;;;;4999619;28;20062;-84
2021/05/25 06:49:02;;;;;;;2.67;2.10;;;13.60;66.20;;;;;;5015656;28;20037;-85
2021/05/25 06:51:28;;;;;;;2.90;2.22;;;13.50;66.20;;;;;;5012468;28;20027;-85
2021/05/25 06:53:54;;;;;;;2.90;2.25;;;13.60;66.20;;;;;;5026243;28;20113;-84
2021/05/25 06:56:20;;;;;;;2.75;2.42;;;13.60;66.20;;;;;;5026642;28;20030;-85
2021/05/25 06:58:46;;;;;;;2.10;1.95;;;13.60;66.20;;;;;;4999125;28;20374;-85
2021/05/25 07:01:11;;;;;;;2.50;2.20;;;13.60;66.30;;;;;;5011045;28;20035;-85
2021/05/25 07:03:37;;;;;;;2.88;2.30;;;13.60;66.30;;;;;;4996837;28;20072;-87
2021/05/25 07:06:03;;;;;;;3.45;2.60;;;13.60;66.30;;;;;;4986154;28;20110;-87
2021/05/25 07:08:29;;;;;;;2.72;2.38;;;13.60;66.30;;;;;;4983035;28;20036;-86
2021/05/25 07:10:55;;;;;;;2.85;2.53;;;13.70;66.30;;;;;;4979024;28;20050;-85
2021/05/25 07:13:21;;;;;;;3.40;2.85;;;13.60;66.30;;;;;;5013545;28;20378;-87
2021/05/25 07:15:47;;;;;;;3.60;2.47;;;13.70;66.60;;;;;;4999580;28;20076;-85
2021/05/25 07:18:16;;;;;;;3.30;2.60;;;13.70;66.40;;;;;;4995732;28;20026;-87
2021/05/25 07:20:43;;;;;;;2.90;2.42;;;13.70;66.30;;;;;;4987474;28;20457;-84
2021/05/25 07:23:10;;;;;;;3.50;2.60;;;13.70;66.30;;;;;;5009747;28;20026;-87
2021/05/25 07:25:37;;;;;;;3.00;2.50;;;13.70;66.40;;;;;;5004229;28;20048;-86
2021/05/25 07:28:03;;;;;;;3.20;2.83;;;13.80;66.40;;;;;;5000821;28;20045;-86
2021/05/25 07:30:29;;;;;;;3.20;2.72;;;13.80;66.40;;;;;;5011114;28;20026;-88
2021/05/25 07:32:55;;;;;;;3.28;2.55;;;13.80;66.40;;;;;;5005934;28;20026;-88
2021/05/25 07:35:20;;;;;;;3.80;3.30;;;13.80;66.40;;;;;;4996871;28;20374;-87
2021/05/25 07:37:46;;;;;;;2.97;2.67;;;13.80;66.30;;;;;;5007740;28;20038;-88
2021/05/25 07:40:17;;;;;;;3.85;2.95;;;13.80;66.30;;;;;;5000335;28;20125;-86
2021/05/25 07:42:45;;;;;;;4.03;2.85;;;13.90;66.40;;;;;;4984947;28;20076;-88
2021/05/25 07:45:11;;;;;;;3.90;3.20;;;13.90;66.30;;;;;;5014229;28;20041;-86
2021/05/25 07:47:37;;;;;;;3.92;2.88;;;13.90;66.30;;;;;;5010315;28;20060;-85
2021/05/25 07:50:14;;;;;;;3.17;2.65;;;13.90;66.20;;;;;;5021960;28;20038;-87
2021/05/25 07:52:51;;;;;;;3.42;2.80;;;13.90;66.30;;;;;;5006963;28;20386;-86
2021/05/25 07:55:21;;;;;;;4.10;2.80;;;14.00;66.30;;;;;;5014609;28;20390;-85
2021/05/25 07:57:47;;;;;;;3.88;3.00;;;14.00;66.30;;;;;;5014214;28;20057;-86
2021/05/25 08:00:14;;;;;;;3.90;3.00;;;14.00;66.20;;;;;;4987647;28;20034;-87
2021/05/25 08:02:42;;;;;;;3.10;2.80;;;14.00;66.30;;;;;;5011133;28;20298;-86
2021/05/25 08:05:08;;;;;;;3.53;2.97;;;14.00;66.20;;;;;;4989372;28;20034;-87
2021/05/25 08:07:34;;;;;;;4.05;2.85;;;14.10;66.20;;;;;;4983785;28;20034;-86
2021/05/25 08:10:02;;;;;;;2.83;2.55;;;14.10;66.20;;;;;;5030794;28;20025;-86
2021/05/25 08:12:29;;;;;;;3.15;2.80;;;14.20;66.30;;;;;;4994695;28;20376;-86
2021/05/25 08:14:55;;;;;;;3.45;2.85;;;14.20;66.20;;;;;;5008364;28;20026;-86
2021/05/25 08:17:31;;;;;;;3.67;2.80;;;14.20;66.20;;;;;;4986185;28;20061;-85
2021/05/25 08:20:04;;;;;;;3.08;2.72;;;14.20;66.20;;;;;;5014048;28;20038;-86
2021/05/25 08:22:29;;;;;;;3.00;2.70;;;14.20;66.10;;;;;;4982786;28;20113;-85
2021/05/25 08:24:56;;;;;;;3.47;2.90;;;14.30;66.20;;;;;;5013945;28;20080;-86
2021/05/25 08:27:22;;;;;;;4.00;2.88;;;14.30;66.10;;;;;;4995297;28;20482;-85
2021/05/25 08:29:48;;;;;;;3.38;2.85;;;14.30;66.10;;;;;;4997257;28;20088;-91
2021/05/25 08:32:15;;;;;;;2.72;2.50;;;14.40;66.20;;;;;;5023292;28;20096;-93
2021/05/25 08:34:43;;;;;;;3.25;2.78;;;14.40;66.20;;;;;;5013912;28;20037;-89
2021/05/25 08:37:09;;;;;;;3.67;2.97;;;14.40;66.30;;;;;;4997339;28;20061;-89
2021/05/25 08:39:35;;;;;;;3.10;2.60;;;14.40;66.20;;;;;;4996553;28;20113;-91
2021/05/25 08:42:01;;;;;;;3.70;2.80;;;14.50;66.20;;;;;;4989301;28;20061;-93
2021/05/25 08:44:26;;;;;;;3.50;2.88;;;14.50;66.20;;;;;;4996694;28;20084;-92
2021/05/25 08:46:52;;;;;;;2.92;2.45;;;14.50;66.10;;;;;;5011764;28;20463;-91
2021/05/25 08:49:18;;;;;;;3.33;2.75;;;14.50;66.10;;;;;;4984886;28;20034;-89
2021/05/25 08:51:44;;;;;;;3.72;2.80;;;14.60;66.10;;;;;;5028362;28;20093;-91
2021/05/25 08:54:10;;;;;;;3.55;2.58;;;14.60;66.10;;;;;;5012937;28;20065;-87
2021/05/25 08:56:36;;;;;;;2.90;2.40;;;14.70;66.10;;;;;;5007298;28;20041;-89
2021/05/25 08:59:02;;;;;;;3.17;2.35;;;14.70;66.10;;;;;;5018564;28;20093;-90
2021/05/25 09:01:28;;;;;;;3.15;2.03;;;14.80;66.10;;;;;;5023015;28;20026;-89
2021/05/25 09:03:58;;;;;;;2.42;2.13;;;14.80;66.00;;;;;;4980564;28;20026;-87
2021/05/25 09:06:46;;;;;;;3.17;2.25;;;14.80;66.00;;;;;;5004941;28;20030;-89
2021/05/25 09:09:18;;;;;;;2.63;2.00;;;14.90;66.10;;;;;;5013066;28;20029;-89
2021/05/25 09:12:08;;;;;;;2.25;2.05;;;15.00;65.90;;;;;;5001067;28;20030;-86
2021/05/25 09:14:48;;;;;;;2.88;2.03;;;15.00;66.00;;;;;;5004997;28;20460;-87
2021/05/25 09:17:21;;;;;;;2.60;1.90;;;15.10;65.90;;;;;;5012724;28;20038;-85
2021/05/25 09:19:54;;;;;;;2.60;2.00;;;15.20;65.70;;;;;;5012512;28;20067;-84
2021/05/25 09:22:35;;;;;;;2.50;1.63;;;15.20;65.60;;;;;;4996015;28;20030;-84
2021/05/25 09:25:22;;;;;;;1.95;1.60;;;15.30;65.60;;;;;;5010490;28;20033;-85
2021/05/25 09:27:59;;;;;;;1.88;1.55;;;15.40;65.50;;;;;;5017861;28;20490;-90
2021/05/25 09:30:31;;;;;;;2.15;1.67;;;15.40;65.40;;;;;;5008443;28;20037;-90
2021/05/25 09:33:03;;;;;;;1.60;1.40;;;15.40;65.40;;;;;;5026109;28;20037;-91
2021/05/25 09:35:34;;;;;;;1.73;1.50;;;15.50;65.40;;;;;;4993225;28;20034;-90
2021/05/25 09:38:06;;;;;;;1.45;1.33;;;15.50;65.40;;;;;;5012280;28;20026;-91
2021/05/25 09:40:33;;;;;;;1.50;1.40;;;15.50;65.40;;;;;;5012475;28;20029;-91
2021/05/25 09:43:10;;;;;;;1.65;1.35;;;15.50;65.30;;;;;;4996043;28;20212;-92
2021/05/25 09:45:36;;;;;;;1.40;1.30;;;15.50;65.50;;;;;;5002754;28;20022;-92
2021/05/25 09:48:05;;;;;;;2.60;1.38;;;15.50;65.40;;;;;;5001938;28;20057;-90
2021/05/25 09:50:37;;;;;;;1.90;1.27;;;15.60;65.50;;;;;;5009495;28;20121;-93
2021/05/25 09:53:06;;;;;;;1.73;1.20;;;15.60;65.50;;;;;;5022439;28;20125;-92
2021/05/25 09:55:46;;;;;;;1.30;1.20;;;15.60;65.50;;;;;;4994540;28;20061;-93
2021/05/25 09:58:12;;;;;;;2.00;1.20;;;15.60;65.50;;;;;;4998186;28;20066;-92
2021/05/25 10:00:40;;;;;;;1.23;1.10;;;15.60;65.50;;;;;;5006411;28;20118;-93
2021/05/25 10:03:21;;;;;;;1.08;1.00;;;15.60;65.50;;;;;;5031312;28;20030;-94
2021/05/25 10:05:48;;;;;;;1.58;1.10;;;15.60;65.50;;;;;;5031148;28;20092;-92
2021/05/25 10:08:16;;;;;;;1.80;1.20;;;15.70;65.60;;;;;;5020609;28;20040;-92
2021/05/25 10:10:43;;;;;;;1.50;1.30;;;15.60;65.60;;;;;;4998608;28;20030;-92
2021/05/25 10:13:10;;;;;;;1.90;1.20;;;15.60;65.60;;;;;;5010316;28;20026;-90
2021/05/25 10:15:36;;;;;;;1.55;1.02;;;15.70;65.60;;;;;;5021323;28;20073;-91
2021/05/25 10:20:33;;;;;;;2.05;1.30;;;15.70;65.70;;;;;;5012062;28;20038;-91
2021/05/25 10:22:59;;;;;;;1.75;1.20;;;15.70;65.70;;;;;;5002365;28;20096;-89
2021/05/25 10:25:28;;;;;;;1.25;1.15;;;15.70;65.70;;;;;;5004844;28;20530;-91
2021/05/25 10:27:54;;;;;;;1.88;1.20;;;15.70;65.70;;;;;;5000501;28;20052;-95
2021/05/25 10:30:26;;;;;;;1.48;1.10;;;15.80;65.70;;;;;;4999169;28;20022;-91
2021/05/25 10:33:11;;;;;;;1.98;1.30;;;15.80;65.80;;;;;;5012738;28;20056;-95
2021/05/25 10:35:46;;;;;;;2.80;1.42;;;15.80;65.80;;;;;;5019092;28;20072;-96
2021/05/25 10:38:12;;;;;;;1.50;1.30;;;15.80;65.80;;;;;;5012620;28;20041;-86
2021/05/25 10:40:49;;;;;;;2.00;1.40;;;15.80;65.60;;;;;;4995700;28;20383;-85
2021/05/25 10:43:44;;;;;;;3.28;1.45;;;15.80;65.60;;;;;;5022416;28;20064;-85
2021/05/25 10:46:10;;;;;;;1.73;1.10;;;15.90;65.80;;;;;;5025153;28;20104;-85
2021/05/25 10:48:59;;;;;;;2.22;1.40;;;15.90;65.60;;;;;;5003900;28;20460;-85
2021/05/25 10:51:48;;;;;;;1.10;1.05;;;15.90;65.80;;;;;;5006783;28;20050;-87
2021/05/25 10:54:25;;;;;;;1.60;1.33;;;15.90;65.80;;;;;;5015166;28;20436;-84
2021/05/25 10:56:51;;;;;;;2.75;1.30;;;15.90;65.80;;;;;;5015581;28;20125;-87
2021/05/25 10:59:19;;;;;;;1.45;1.35;;;15.90;65.70;;;;;;4985318;28;20067;-84
2021/05/25 11:01:59;;;;;;;1.58;1.23;;;15.90;65.70;;;;;;5012356;28;20033;-86
2021/05/25 11:04:37;;;;;;;2.20;1.50;;;15.90;65.80;;;;;;5001300;28;20087;-89
2021/05/25 11:07:42;;;;;;;1.23;1.13;;;15.90;65.90;;;;;;5023111;28;20025;-87
2021/05/25 11:10:36;;;;;;;1.45;1.30;;;15.90;65.90;;;;;;4938653;29;20023;-83
2021/05/25 11:13:21;;;;;;;1.67;1.35;;;15.90;65.90;;;;;;4952480;28;20035;-87
2021/05/25 11:16:16;;;;;;;2.35;1.40;;;15.90;65.90;;;;;;4983224;28;20041;-88
2021/05/25 11:21:36;;;;;;;2.13;1.43;;;15.90;65.80;;;;;;5006970;28;20072;-83
2021/05/25 11:24:45;;;;;;;2.00;1.50;;;15.90;65.90;;;;;;5019631;28;20339;-83
2021/05/25 11:27:36;;;;;;;2.25;1.40;;;15.90;66.00;;;;;;5014890;28;20261;-86
2021/05/25 11:30:09;;;;;;;1.17;1.10;;;15.90;66.00;;;;;;4997700;28;20033;-83
2021/05/25 11:32:46;;;;;;;3.00;1.48;;;15.90;65.90;;;;;;5015785;28;20069;-84
2021/05/25 11:35:14;;;;;;;2.95;1.38;;;15.90;65.90;;;;;;5012252;28;20022;-83
2021/05/25 11:37:44;;;;;;;2.75;1.42;;;16.00;66.00;;;;;;4996013;28;20030;-82
2021/05/25 11:40:16;;;;;;;1.27;1.17;;;16.00;66.00;;;;;;5007257;28;20101;-81
2021/05/25 11:42:45;;;;;;;1.85;1.40;;;16.00;66.00;;;;;;4999750;28;20030;-83
2021/05/25 11:45:11;;;;;;;2.10;1.30;;;16.00;65.90;;;;;;5013617;28;20036;-84
2021/05/25 11:47:39;;;;;;;1.95;1.25;;;16.10;66.00;;;;;;4997046;28;20125;-84
2021/05/25 11:50:06;;;;;;;2.38;1.35;;;16.10;65.90;;;;;;5013417;28;20026;-82
2021/05/25 11:52:34;;;;;;;2.65;1.20;;;16.10;65.80;;;;;;5030046;28;20466;-84
2021/05/25 11:55:07;;;;;;;2.13;1.20;;;16.20;65.90;;;;;;4996702;28;20427;-84
2021/05/25 11:57:37;;;;;;;2.15;1.00;;;16.20;65.90;;;;;;4984299;28;20033;-82
2021/05/25 12:00:19;;;;;;;2.40;1.13;;;16.20;65.80;;;;;;4995043;28;20057;-81
2021/05/25 12:02:53;;;;;;;1.67;1.20;;;16.20;65.80;;;;;;5013363;28;20057;-82
2021/05/25 12:05:24;;;;;;;1.63;1.20;;;16.30;65.90;;;;;;5013497;28;20531;-84
2021/05/25 12:07:55;;;;;;;1.55;1.10;;;16.30;65.80;;;;;;5012903;28;20046;-83
2021/05/25 12:10:26;;;;;;;2.78;1.20;;;16.40;65.70;;;;;;5013608;28;20030;-83
2021/05/25 12:12:53;;;;;;;1.50;1.10;;;16.40;65.70;;;;;;5003193;28;20026;-82
2021/05/25 12:15:22;;;;;;;1.80;1.20;;;16.40;65.70;;;;;;5013206;28;20511;-82
2021/05/25 12:17:59;;;;;;;1.40;1.10;;;16.40;65.60;;;;;;4996620;28;20490;-83
2021/05/25 12:20:41;;;;;;;1.00;0.80;;;16.50;65.70;;;;;;5014751;28;20474;-84
2021/05/25 12:23:14;;;;;;;2.25;1.10;;;16.50;65.60;;;;;;4988796;28;20038;-86
2021/05/25 12:25:54;;;;;;;1.83;1.10;;;16.60;65.60;;;;;;4996879;28;20026;-85
2021/05/25 12:28:20;;;;;;;1.75;1.20;;;16.60;65.50;;;;;;5007932;28;20061;-86
2021/05/25 12:30:53;;;;;;;2.47;1.20;;;16.60;65.40;;;;;;4996422;28;20109;-84
2021/05/25 12:33:20;;;;;;;1.75;1.10;;;16.60;65.40;;;;;;5012596;28;20022;-83
2021/05/25 12:35:47;;;;;;;1.42;1.10;;;16.70;65.30;;;;;;5029890;28;20022;-83
2021/05/25 12:38:18;;;;;;;1.52;1.10;;;16.70;65.30;;;;;;5012986;28;20084;-85
2021/05/25 12:40:59;;;;;;;1.23;1.10;;;16.80;65.30;;;;;;5023376;28;20026;-86
2021/05/25 12:43:26;;;;;;;0.90;0.85;;;16.80;65.20;;;;;;5008168;28;20598;-87
2021/05/25 12:45:53;;;;;;;3.20;1.27;;;16.80;65.10;;;;;;5000763;28;20048;-85
2021/05/25 12:48:36;;;;;;;1.75;1.00;;;16.80;65.00;;;;;;4996154;28;20034;-86
2021/05/25 12:51:02;;;;;;;1.58;0.95;;;16.90;65.10;;;;;;5002041;28;20026;-84
2021/05/25 12:53:28;;;;;;;1.75;0.95;;;16.90;64.90;;;;;;5013058;28;20022;-86
2021/05/25 12:55:54;;;;;;;0.93;0.93;;;16.90;64.90;;;;;;5003396;28;20034;-88
2021/05/25 12:58:43;;;;;;;1.77;0.90;;;16.90;64.80;;;;;;5004669;28;20014;-84
2021/05/25 13:01:27;;;;;;;0.88;0.88;;;16.90;64.80;;;;;;5013002;28;20077;-85
2021/05/25 13:04:17;;;;;;;0.85;0.85;;;17.00;64.80;;;;;;4996489;28;20382;-85
2021/05/25 13:12:00;;;;;;;1.13;0.80;;;17.00;64.50;;;;;;5005634;28;20072;-85
2021/05/25 13:14:28;;;;;;;0.80;0.80;;;17.00;64.60;;;;;;5002370;28;20030;-85